Time;durP1;ratioP1;P1;durP2;ratioP2;P2;SDS_P1;SDS_P2;PMS_P1;PMS_P2;Temp;Humidity;BMP_temperature;BMP_pressure;BME280_temperature;BME280_humidity;BME280_pressure;Samples;Min_cycle;Max_cycle;Signal;HPM_P1;HPM_P2
2022/03/24 00:01:47;;;;;;;40.10;36.70;;;6.90;63.80;;;;;;5095793;28;20295;-72
2022/03/24 00:04:14;;;;;;;39.25;35.95;;;6.80;64.10;;;;;;5095869;28;20202;-72
2022/03/24 00:06:40;;;;;;;40.00;36.80;;;6.80;64.40;;;;;;5095880;28;20196;-72
2022/03/24 00:09:09;;;;;;;38.42;35.03;;;6.80;65.60;;;;;;5095644;28;20685;-72
2022/03/24 00:11:36;;;;;;;39.00;35.33;;;6.70;65.00;;;;;;5095548;28;20216;-72
2022/03/24 00:14:03;;;;;;;36.83;33.72;;;6.70;65.20;;;;;;5095601;28;20195;-72
2022/03/24 00:16:30;;;;;;;38.97;35.88;;;6.70;65.50;;;;;;5095665;28;20202;-72
2022/03/24 00:18:57;;;;;;;39.08;35.58;;;6.60;65.50;;;;;;5095453;28;20203;-72
2022/03/24 00:21:24;;;;;;;37.42;34.35;;;6.70;65.20;;;;;;5095521;28;20285;-72
2022/03/24 00:23:51;;;;;;;41.13;37.42;;;6.70;64.70;;;;;;5095889;28;20203;-72
2022/03/24 00:26:20;;;;;;;36.75;33.75;;;6.70;64.20;;;;;;5095492;28;20192;-72
2022/03/24 00:28:47;;;;;;;39.60;36.40;;;6.60;64.90;;;;;;5095297;28;20204;-72
2022/03/24 00:31:14;;;;;;;38.78;35.42;;;6.50;65.60;;;;;;5095103;28;20215;-72
2022/03/24 00:33:41;;;;;;;39.97;36.63;;;6.50;65.50;;;;;;5095278;28;20227;-72
2022/03/24 00:36:10;;;;;;;38.35;35.33;;;6.40;65.70;;;;;;5095220;28;20192;-72
2022/03/24 00:38:37;;;;;;;37.83;34.75;;;6.40;65.80;;;;;;5095223;28;20196;-72
2022/03/24 00:41:04;;;;;;;40.97;36.65;;;6.40;65.80;;;;;;5094852;28;20253;-72
2022/03/24 00:43:32;;;;;;;38.53;35.38;;;6.50;65.50;;;;;;5095221;28;20215;-72
2022/03/24 00:45:59;;;;;;;38.38;35.03;;;6.50;65.40;;;;;;5095127;28;20657;-72
2022/03/24 00:48:26;;;;;;;39.60;35.90;;;6.40;65.80;;;;;;5095041;28;20207;-72
2022/03/24 00:50:53;;;;;;;38.70;35.40;;;6.30;66.30;;;;;;5094795;28;20736;-72
2022/03/24 00:53:20;;;;;;;39.05;35.80;;;6.20;66.30;;;;;;5094821;28;20219;-72
2022/03/24 00:55:47;;;;;;;39.50;36.30;;;6.20;66.40;;;;;;5094608;28;20231;-72
2022/03/24 00:58:14;;;;;;;39.53;36.22;;;6.20;66.30;;;;;;5095043;28;20192;-72
2022/03/24 01:00:43;;;;;;;38.28;35.17;;;6.30;66.00;;;;;;5094596;28;20207;-72
2022/03/24 01:03:10;;;;;;;38.97;35.88;;;6.20;66.50;;;;;;5094725;28;20276;-72
2022/03/24 01:05:37;;;;;;;38.75;35.45;;;6.10;66.80;;;;;;5094700;28;20288;-72
2022/03/24 01:08:07;;;;;;;38.45;34.75;;;6.00;67.10;;;;;;5094456;28;20653;-72
2022/03/24 01:10:35;;;;;;;39.92;36.53;;;6.00;67.30;;;;;;5094661;28;20226;-72
2022/03/24 01:13:03;;;;;;;39.85;36.65;;;5.90;68.70;;;;;;5094462;28;20681;-72
2022/03/24 01:15:31;;;;;;;39.92;36.35;;;5.90;70.30;;;;;;5094385;28;20191;-72
2022/03/24 01:18:00;;;;;;;39.75;36.47;;;5.90;68.20;;;;;;5094536;28;20202;-72
2022/03/24 01:20:28;;;;;;;39.03;35.75;;;5.80;67.80;;;;;;5094189;28;20207;-72
2022/03/24 01:22:55;;;;;;;40.85;37.30;;;5.80;67.80;;;;;;5094395;28;20216;-72
2022/03/24 01:25:23;;;;;;;37.45;34.45;;;5.80;67.80;;;;;;5094287;28;20202;-72
2022/03/24 01:27:51;;;;;;;40.50;37.17;;;5.70;67.70;;;;;;5094264;28;20231;-72
2022/03/24 01:30:18;;;;;;;38.58;35.47;;;5.70;67.90;;;;;;5094103;28;20253;-72
2022/03/24 01:32:45;;;;;;;38.80;35.47;;;5.70;68.10;;;;;;5094121;28;20251;-72
2022/03/24 01:35:15;;;;;;;39.50;36.17;;;5.70;68.20;;;;;;5094297;28;20233;-72
2022/03/24 01:37:42;;;;;;;40.03;36.63;;;5.70;68.50;;;;;;5093875;28;20286;-72
2022/03/24 01:40:11;;;;;;;40.78;37.22;;;5.60;69.20;;;;;;5093813;28;20192;-72
2022/03/24 01:42:39;;;;;;;39.08;35.88;;;5.70;69.40;;;;;;5093349;28;20244;-72
2022/03/24 01:45:08;;;;;;;39.20;35.70;;;5.60;68.70;;;;;;5094008;28;20195;-72
2022/03/24 01:47:35;;;;;;;42.17;38.15;;;5.60;68.30;;;;;;5093950;28;20283;-72
2022/03/24 01:50:03;;;;;;;40.13;36.80;;;5.60;68.10;;;;;;5093609;28;20400;-71
2022/03/24 01:52:31;;;;;;;41.42;37.58;;;5.70;67.80;;;;;;5093660;28;20227;-72
2022/03/24 01:55:00;;;;;;;41.13;37.80;;;5.60;67.80;;;;;;5093646;28;20195;-72
2022/03/24 01:57:28;;;;;;;40.92;37.55;;;5.50;68.30;;;;;;5093776;28;20222;-72
2022/03/24 01:59:55;;;;;;;40.60;37.15;;;5.50;68.80;;;;;;5093288;28;20199;-72
2022/03/24 02:02:22;;;;;;;38.05;34.70;;;5.40;69.20;;;;;;5093600;28;20207;-72
2022/03/24 02:04:50;;;;;;;41.08;37.50;;;5.40;69.40;;;;;;5093444;28;20288;-72
2022/03/24 02:07:17;;;;;;;40.90;37.45;;;5.40;69.30;;;;;;5093456;28;20238;-72
2022/03/24 02:09:45;;;;;;;40.72;37.00;;;5.50;68.70;;;;;;5093250;28;20494;-72
2022/03/24 02:12:13;;;;;;;38.28;35.00;;;5.50;68.50;;;;;;5093373;28;20229;-72
2022/03/24 02:14:41;;;;;;;41.80;38.15;;;5.40;68.50;;;;;;5093339;28;20231;-72
2022/03/24 02:17:08;;;;;;;38.22;34.92;;;5.40;68.60;;;;;;5093471;28;20195;-72
2022/03/24 02:19:36;;;;;;;43.15;39.45;;;5.40;68.90;;;;;;5093292;28;20207;-72
2022/03/24 02:22:10;;;;;;;40.20;36.60;;;5.30;69.40;;;;;;5093167;28;20243;-72
2022/03/24 02:24:37;;;;;;;39.92;36.83;;;5.20;69.80;;;;;;5093420;28;20237;-72
2022/03/24 02:27:05;;;;;;;40.90;37.20;;;5.20;69.70;;;;;;5093093;28;20203;-72
2022/03/24 02:29:32;;;;;;;41.40;37.83;;;5.10;69.80;;;;;;5092906;28;20192;-72
2022/03/24 02:31:59;;;;;;;40.25;36.83;;;5.10;69.60;;;;;;5093038;28;20226;-72
2022/03/24 02:34:40;;;;;;;40.03;36.60;;;5.00;69.90;;;;;;5093094;28;20198;-72
2022/03/24 02:37:10;;;;;;;42.08;38.58;;;5.00;70.50;;;;;;5093044;28;20207;-72
2022/03/24 02:39:39;;;;;;;40.08;36.25;;;4.90;70.80;;;;;;5093014;28;20212;-72
2022/03/24 02:42:07;;;;;;;40.10;36.50;;;5.00;70.90;;;;;;5092735;28;20215;-72
2022/03/24 02:44:34;;;;;;;42.08;38.47;;;5.00;70.60;;;;;;5093076;28;20553;-72
2022/03/24 02:47:06;;;;;;;42.05;38.40;;;5.00;70.50;;;;;;5092862;28;20204;-72
2022/03/24 02:49:34;;;;;;;42.58;38.75;;;5.00;70.50;;;;;;5092673;28;20565;-72
2022/03/24 02:52:02;;;;;;;41.30;37.42;;;5.00;70.50;;;;;;5092640;28;20310;-72
2022/03/24 02:54:32;;;;;;;40.28;36.67;;;4.90;70.70;;;;;;5091850;28;20199;-72
2022/03/24 02:56:59;;;;;;;40.67;36.88;;;4.80;71.00;;;;;;5092774;28;20282;-72
2022/03/24 02:59:27;;;;;;;43.38;39.35;;;4.80;71.20;;;;;;5092345;28;20580;-71
2022/03/24 03:01:55;;;;;;;43.30;39.10;;;4.80;71.40;;;;;;5092677;28;20224;-72
2022/03/24 03:04:23;;;;;;;41.10;37.63;;;4.70;71.70;;;;;;5092699;28;20206;-72
2022/03/24 03:06:50;;;;;;;42.65;38.80;;;4.80;71.60;;;;;;5092480;28;20218;-72
2022/03/24 03:09:18;;;;;;;42.42;38.83;;;4.80;71.50;;;;;;5092421;28;20199;-72
2022/03/24 03:11:47;;;;;;;41.33;37.65;;;4.80;71.50;;;;;;5092472;28;20276;-72
2022/03/24 03:14:15;;;;;;;41.53;37.72;;;4.70;71.90;;;;;;5092510;28;20222;-72
2022/03/24 03:16:44;;;;;;;40.92;37.35;;;4.60;72.10;;;;;;5092512;28;20280;-72
2022/03/24 03:19:11;;;;;;;42.15;38.38;;;4.60;72.20;;;;;;5092136;28;20712;-72
2022/03/24 03:21:39;;;;;;;44.22;40.33;;;4.60;72.30;;;;;;5092320;28;20564;-72
2022/03/24 03:24:07;;;;;;;45.28;40.88;;;4.60;72.20;;;;;;5092339;28;20198;-72
2022/03/24 03:26:35;;;;;;;41.90;38.20;;;4.70;71.80;;;;;;5092453;28;20197;-72
2022/03/24 03:29:03;;;;;;;43.63;39.55;;;4.70;71.60;;;;;;5092328;28;20195;-72
2022/03/24 03:31:30;;;;;;;42.53;38.58;;;4.60;71.80;;;;;;5092316;28;20232;-72
2022/03/24 03:33:58;;;;;;;43.17;39.33;;;4.60;72.00;;;;;;5092375;28;20223;-72
2022/03/24 03:36:25;;;;;;;41.97;37.92;;;4.50;72.40;;;;;;5092314;28;20200;-72
2022/03/24 03:38:52;;;;;;;41.30;37.70;;;4.50;72.20;;;;;;5092304;28;20199;-72
2022/03/24 03:41:22;;;;;;;40.90;37.15;;;4.50;72.30;;;;;;5092251;28;20202;-72
2022/03/24 03:43:50;;;;;;;41.90;38.20;;;4.50;72.40;;;;;;5092419;28;20212;-72
2022/03/24 03:46:18;;;;;;;42.88;38.72;;;4.40;72.80;;;;;;5092234;28;20201;-72
2022/03/24 03:48:46;;;;;;;41.75;37.75;;;4.40;72.80;;;;;;5092279;28;20192;-72
2022/03/24 03:51:13;;;;;;;42.25;38.45;;;4.40;72.90;;;;;;5092199;28;20604;-72
2022/03/24 03:53:41;;;;;;;39.75;36.35;;;4.40;72.70;;;;;;5092234;28;20247;-72
2022/03/24 03:56:08;;;;;;;40.58;37.20;;;4.40;72.60;;;;;;5092017;28;20685;-72
2022/03/24 03:58:36;;;;;;;42.92;39.03;;;4.30;72.70;;;;;;5092362;28;20282;-72
2022/03/24 04:01:03;;;;;;;43.17;39.38;;;4.30;72.70;;;;;;5091869;28;20192;-72
2022/03/24 04:03:33;;;;;;;42.20;38.45;;;4.30;72.70;;;;;;5092293;28;20224;-72
2022/03/24 04:06:01;;;;;;;41.67;38.03;;;4.30;72.80;;;;;;5095737;28;20651;-72
2022/03/24 04:08:29;;;;;;;45.05;41.08;;;4.30;72.90;;;;;;5096214;28;20200;-72
2022/03/24 04:10:56;;;;;;;43.17;39.33;;;4.30;73.20;;;;;;5095901;28;20199;-72
2022/03/24 04:13:24;;;;;;;41.53;37.90;;;4.30;73.20;;;;;;5095740;28;20791;-72
2022/03/24 04:15:53;;;;;;;42.53;38.55;;;4.20;73.20;;;;;;5095681;28;20191;-72
2022/03/24 04:18:20;;;;;;;43.63;39.72;;;4.20;73.30;;;;;;5095533;28;20657;-72
2022/03/24 04:20:48;;;;;;;43.90;39.90;;;4.20;73.50;;;;;;5095487;28;20538;-72
2022/03/24 04:23:15;;;;;;;42.58;38.50;;;4.30;73.30;;;;;;5095461;28;20211;-72
2022/03/24 04:25:42;;;;;;;45.47;41.67;;;4.30;73.20;;;;;;5095437;28;20324;-72
2022/03/24 04:28:09;;;;;;;42.75;38.92;;;4.20;73.40;;;;;;5095290;28;20209;-72
2022/03/24 04:30:37;;;;;;;45.65;41.00;;;4.20;73.50;;;;;;5095167;28;20202;-72
2022/03/24 04:33:05;;;;;;;43.55;39.50;;;4.10;73.90;;;;;;5095326;28;20227;-72
2022/03/24 04:35:33;;;;;;;42.25;38.55;;;4.20;73.90;;;;;;5095263;28;20195;-71
2022/03/24 04:38:02;;;;;;;41.95;38.25;;;4.10;73.60;;;;;;5095206;28;20195;-72
2022/03/24 04:40:29;;;;;;;43.42;39.53;;;4.20;73.40;;;;;;5094962;28;20196;-71
2022/03/24 04:42:56;;;;;;;44.97;41.00;;;4.10;73.30;;;;;;5095220;28;20314;-72
2022/03/24 04:45:26;;;;;;;43.97;40.13;;;4.10;73.30;;;;;;5095080;28;20199;-72
2022/03/24 04:47:54;;;;;;;42.58;39.08;;;4.10;73.30;;;;;;5095145;28;20206;-72
2022/03/24 04:50:21;;;;;;;43.20;39.40;;;4.10;73.50;;;;;;5094799;28;20205;-72
2022/03/24 04:52:49;;;;;;;43.80;39.70;;;4.00;73.70;;;;;;5094739;28;20254;-72
2022/03/24 04:55:17;;;;;;;45.05;41.15;;;4.00;73.80;;;;;;5094534;28;20714;-72
2022/03/24 04:57:45;;;;;;;43.97;40.08;;;3.90;74.00;;;;;;5094848;28;20199;-72
2022/03/24 05:00:15;;;;;;;45.45;41.47;;;3.90;74.00;;;;;;5094419;28;20205;-72
2022/03/24 05:02:43;;;;;;;45.00;40.70;;;3.90;74.20;;;;;;5094667;28;20258;-72
2022/03/24 05:05:11;;;;;;;43.83;39.95;;;3.90;74.50;;;;;;5094681;28;20197;-72
2022/03/24 05:07:38;;;;;;;44.25;40.53;;;3.80;74.70;;;;;;5094585;28;20194;-72
2022/03/24 05:10:06;;;;;;;45.22;41.45;;;3.80;74.70;;;;;;5094327;28;20203;-71
2022/03/24 05:12:34;;;;;;;44.97;41.05;;;3.80;74.60;;;;;;5094360;28;20768;-71
2022/03/24 05:15:01;;;;;;;44.63;40.80;;;3.90;74.50;;;;;;5094500;28;20199;-71
2022/03/24 05:17:28;;;;;;;45.22;41.13;;;3.90;74.10;;;;;;5093382;28;20202;-71
2022/03/24 05:19:54;;;;;;;45.85;41.45;;;3.90;74.20;;;;;;5094108;28;20286;-71
2022/03/24 05:22:21;;;;;;;44.88;40.88;;;3.90;74.10;;;;;;5094365;28;20222;-71
2022/03/24 05:24:48;;;;;;;51.08;39.95;;;3.90;74.10;;;;;;5094245;28;20199;-71
2022/03/24 05:27:15;;;;;;;45.25;41.05;;;3.80;74.30;;;;;;5094300;28;20286;-71
2022/03/24 05:29:43;;;;;;;44.63;40.83;;;3.90;74.10;;;;;;5094075;28;20210;-72
2022/03/24 05:32:11;;;;;;;46.30;42.10;;;3.90;73.90;;;;;;5094196;28;20235;-71
2022/03/24 05:34:38;;;;;;;45.47;41.30;;;3.90;74.00;;;;;;5094512;28;20582;-71
2022/03/24 05:37:05;;;;;;;48.55;44.45;;;3.90;74.90;;;;;;5093907;28;20192;-71
2022/03/24 05:39:32;;;;;;;44.42;40.22;;;3.90;74.30;;;;;;5093915;28;20287;-71
2022/03/24 05:42:02;;;;;;;44.80;40.50;;;3.90;74.00;;;;;;5094446;28;20298;-71
2022/03/24 05:44:30;;;;;;;44.35;40.35;;;4.00;73.80;;;;;;5093932;28;20241;-71
2022/03/24 05:46:58;;;;;;;42.25;38.65;;;4.10;73.40;;;;;;5094007;28;20210;-71
2022/03/24 05:49:26;;;;;;;43.05;38.97;;;4.10;73.30;;;;;;5093647;28;20195;-71
2022/03/24 05:51:53;;;;;;;43.33;39.20;;;4.20;73.10;;;;;;5093764;28;20627;-71
2022/03/24 05:54:21;;;;;;;45.10;40.70;;;4.20;72.90;;;;;;5093518;28;20234;-71
2022/03/24 05:56:49;;;;;;;44.80;40.70;;;4.20;73.00;;;;;;5093748;28;20203;-71
2022/03/24 05:59:17;;;;;;;44.72;40.53;;;4.30;72.90;;;;;;5093376;28;20229;-71
2022/03/24 06:01:45;;;;;;;43.30;39.40;;;4.30;72.50;;;;;;5093642;28;20286;-71
2022/03/24 06:04:14;;;;;;;43.70;39.88;;;4.30;72.50;;;;;;5093539;28;20209;-71
2022/03/24 06:06:42;;;;;;;45.25;41.35;;;4.20;72.80;;;;;;5093703;28;20290;-71
2022/03/24 06:09:09;;;;;;;44.42;40.42;;;4.40;72.50;;;;;;5093242;28;20744;-72
2022/03/24 06:11:37;;;;;;;45.13;41.53;;;4.40;72.20;;;;;;5093429;28;20202;-71
2022/03/24 06:14:07;;;;;;;46.17;41.88;;;4.40;72.10;;;;;;5093312;28;20227;-71
2022/03/24 06:16:35;;;;;;;44.15;40.10;;;4.60;72.00;;;;;;5093223;28;20200;-71
2022/03/24 06:19:01;;;;;;;45.08;40.67;;;4.60;72.00;;;;;;5093100;28;20214;-72
2022/03/24 06:21:30;;;;;;;45.33;41.13;;;4.60;72.10;;;;;;5093135;28;20210;-71
2022/03/24 06:23:56;;;;;;;44.05;40.05;;;4.60;72.30;;;;;;5093303;28;20198;-71
2022/03/24 06:26:23;;;;;;;44.75;40.72;;;4.80;71.80;;;;;;5093305;28;20684;-71
2022/03/24 06:28:52;;;;;;;44.40;40.60;;;4.90;71.40;;;;;;5092850;28;20214;-71
2022/03/24 06:31:19;;;;;;;45.28;40.88;;;5.00;71.20;;;;;;5092901;28;20199;-71
2022/03/24 06:33:47;;;;;;;45.22;41.28;;;5.20;70.80;;;;;;5093083;28;20227;-71
2022/03/24 06:36:15;;;;;;;49.28;44.30;;;5.30;70.30;;;;;;5093139;28;20195;-72
2022/03/24 06:38:44;;;;;;;46.08;41.65;;;5.40;69.80;;;;;;5092905;28;20202;-72
2022/03/24 06:41:14;;;;;;;44.38;40.50;;;5.50;69.50;;;;;;5093111;28;20234;-71
2022/03/24 06:43:42;;;;;;;43.38;39.03;;;5.70;69.00;;;;;;5093331;28;20218;-71
2022/03/24 06:46:09;;;;;;;45.00;40.90;;;5.70;68.80;;;;;;5093016;28;20687;-71
2022/03/24 06:48:36;;;;;;;45.20;41.05;;;5.80;68.40;;;;;;5093010;28;20195;-71
2022/03/24 06:51:04;;;;;;;44.58;40.78;;;5.90;68.10;;;;;;5092676;28;20199;-71
2022/03/24 06:53:31;;;;;;;45.45;41.25;;;6.10;67.70;;;;;;5092704;28;20733;-71
2022/03/24 06:55:59;;;;;;;44.47;40.33;;;6.20;67.40;;;;;;5092560;28;20202;-72
2022/03/24 06:58:26;;;;;;;43.97;39.88;;;6.40;67.10;;;;;;5092697;28;20196;-72
2022/03/24 07:00:54;;;;;;;44.95;40.97;;;6.50;66.60;;;;;;5092525;28;20287;-72
2022/03/24 07:03:21;;;;;;;46.75;42.88;;;6.60;66.00;;;;;;5092534;28;20221;-71
2022/03/24 07:05:48;;;;;;;45.20;41.28;;;6.50;66.00;;;;;;5092604;28;20198;-72
2022/03/24 07:08:14;;;;;;;46.83;42.50;;;6.60;66.00;;;;;;5092703;28;20196;-71
2022/03/24 07:10:41;;;;;;;45.28;41.20;;;6.70;65.80;;;;;;5092451;28;20294;-72
2022/03/24 07:13:10;;;;;;;44.70;40.80;;;6.90;65.50;;;;;;5092511;28;20223;-72
2022/03/24 07:15:36;;;;;;;44.10;39.80;;;7.00;65.30;;;;;;5092568;28;20198;-71
2022/03/24 07:18:03;;;;;;;46.22;42.28;;;7.10;64.70;;;;;;5092395;28;20211;-72
2022/03/24 07:20:34;;;;;;;46.72;42.72;;;7.30;64.40;;;;;;5092384;28;20287;-71
2022/03/24 07:23:03;;;;;;;44.08;40.17;;;7.30;64.00;;;;;;5092394;28;20291;-72
2022/03/24 07:25:30;;;;;;;47.78;43.55;;;7.50;63.70;;;;;;5092389;28;20203;-72
2022/03/24 07:27:57;;;;;;;48.53;44.22;;;7.70;63.30;;;;;;5092591;28;20543;-72
2022/03/24 07:30:26;;;;;;;47.33;42.85;;;7.80;62.80;;;;;;5092189;28;20689;-72
2022/03/24 07:32:55;;;;;;;44.33;40.33;;;7.90;62.40;;;;;;5092361;28;20216;-72
2022/03/24 07:35:24;;;;;;;44.75;40.60;;;8.10;62.20;;;;;;5092286;28;20218;-72
2022/03/24 07:37:53;;;;;;;48.78;44.40;;;8.20;61.70;;;;;;5092346;28;20218;-72
2022/03/24 07:40:22;;;;;;;47.80;43.17;;;8.30;61.60;;;;;;5094597;28;20206;-71
2022/03/24 07:42:49;;;;;;;47.38;42.67;;;8.40;61.20;;;;;;5096282;28;20228;-71
2022/03/24 07:45:17;;;;;;;51.08;46.13;;;8.60;60.90;;;;;;5096251;28;20259;-71
2022/03/24 07:48:08;;;;;;;45.72;41.72;;;8.80;60.40;;;;;;5096253;28;20287;-72
2022/03/24 07:50:36;;;;;;;47.35;42.92;;;8.90;60.10;;;;;;5096112;28;20198;-71
2022/03/24 07:53:10;;;;;;;48.55;43.60;;;9.00;59.60;;;;;;5096227;28;20218;-71
2022/03/24 07:55:40;;;;;;;48.60;43.85;;;9.10;59.20;;;;;;5095877;28;20197;-71
2022/03/24 07:58:08;;;;;;;47.70;43.25;;;9.20;58.90;;;;;;5096499;28;20199;-71
2022/03/24 08:00:35;;;;;;;47.17;42.47;;;9.30;58.70;;;;;;5095770;28;20281;-72
2022/03/24 08:03:02;;;;;;;49.03;45.03;;;9.40;58.40;;;;;;5095887;28;20226;-71
2022/03/24 08:05:30;;;;;;;48.80;44.25;;;9.60;58.10;;;;;;5098300;28;20651;-71
2022/03/24 08:07:57;;;;;;;50.50;45.53;;;9.60;57.90;;;;;;5097147;28;20678;-71
2022/03/24 08:10:25;;;;;;;48.17;43.42;;;9.70;57.70;;;;;;5095646;28;20193;-72
2022/03/24 08:12:52;;;;;;;52.25;47.30;;;9.70;57.20;;;;;;5095628;28;20232;-72
2022/03/24 08:15:19;;;;;;;48.10;43.50;;;9.80;57.10;;;;;;5095571;28;20245;-72
2022/03/24 08:17:46;;;;;;;48.42;43.70;;;9.80;56.70;;;;;;5095559;28;20289;-72
2022/03/24 08:20:13;;;;;;;50.17;45.70;;;9.90;56.60;;;;;;5095338;28;20199;-72
2022/03/24 08:22:41;;;;;;;49.28;44.85;;;10.00;56.60;;;;;;5095467;28;20224;-72
2022/03/24 08:25:10;;;;;;;49.25;43.90;;;10.20;56.20;;;;;;5095571;28;20201;-72
2022/03/24 08:27:37;;;;;;;49.58;44.85;;;10.40;55.90;;;;;;5095441;28;20198;-72
2022/03/24 08:30:05;;;;;;;48.10;43.30;;;10.50;55.80;;;;;;5095235;28;20223;-72
2022/03/24 08:32:33;;;;;;;50.55;45.90;;;10.70;55.20;;;;;;5095325;28;20471;-72
2022/03/24 08:35:00;;;;;;;47.50;43.00;;;10.70;54.70;;;;;;5095360;28;20217;-72
2022/03/24 08:37:27;;;;;;;49.67;44.97;;;10.80;54.50;;;;;;5095322;28;20454;-72
2022/03/24 08:39:55;;;;;;;49.53;44.83;;;10.90;53.70;;;;;;5095131;28;20441;-72
2022/03/24 08:42:23;;;;;;;51.70;46.83;;;11.00;54.40;;;;;;5095031;28;20478;-72
2022/03/24 08:44:50;;;;;;;50.80;46.00;;;11.10;53.70;;;;;;5095017;28;20802;-72
2022/03/24 08:47:17;;;;;;;50.00;45.10;;;11.10;52.70;;;;;;5095100;28;20453;-72
2022/03/24 08:49:44;;;;;;;49.83;45.00;;;11.30;53.00;;;;;;5094854;28;20455;-72
2022/03/24 08:52:12;;;;;;;49.20;44.80;;;11.30;52.90;;;;;;5094892;28;20483;-72
2022/03/24 08:54:39;;;;;;;51.83;46.77;;;11.30;53.50;;;;;;5094646;28;20531;-72
2022/03/24 08:57:07;;;;;;;49.03;44.70;;;11.40;54.00;;;;;;5094974;28;20453;-72
2022/03/24 08:59:35;;;;;;;49.53;44.93;;;11.60;53.90;;;;;;5094464;28;20698;-72
2022/03/24 09:02:04;;;;;;;51.70;45.10;;;11.70;53.00;;;;;;5094613;28;21008;-72
2022/03/24 09:04:31;;;;;;;50.50;46.27;;;11.90;52.50;;;;;;5094733;28;20528;-72
2022/03/24 09:06:58;;;;;;;49.33;44.77;;;12.00;52.10;;;;;;5094661;28;20548;-72
2022/03/24 09:09:25;;;;;;;49.07;44.47;;;12.10;52.10;;;;;;5094251;28;20450;-72
2022/03/24 09:11:52;;;;;;;50.70;45.60;;;12.30;51.60;;;;;;5094429;28;20993;-72
2022/03/24 09:14:21;;;;;;;49.77;45.27;;;12.30;50.20;;;;;;5094353;28;20491;-72
2022/03/24 09:16:48;;;;;;;50.37;45.70;;;12.40;49.50;;;;;;5094474;28;20828;-72
2022/03/24 09:19:14;;;;;;;48.53;44.30;;;12.50;48.90;;;;;;5094027;28;20495;-72
2022/03/24 09:21:41;;;;;;;49.27;44.80;;;12.50;48.30;;;;;;5094112;28;20472;-72
2022/03/24 09:24:08;;;;;;;51.10;46.30;;;12.50;48.80;;;;;;5094353;28;20537;-72
2022/03/24 09:26:36;;;;;;;50.50;45.83;;;12.80;49.00;;;;;;5094311;28;20567;-72
2022/03/24 09:29:03;;;;;;;50.40;46.03;;;12.90;48.90;;;;;;5094136;28;20445;-72
2022/03/24 09:31:32;;;;;;;48.50;43.93;;;13.00;48.70;;;;;;5094003;28;21014;-72
2022/03/24 09:33:59;;;;;;;51.27;46.60;;;13.20;48.20;;;;;;5094170;28;20520;-72
2022/03/24 09:36:25;;;;;;;49.73;45.30;;;13.30;47.90;;;;;;5093923;28;20452;-72
2022/03/24 09:38:56;;;;;;;48.47;44.13;;;13.40;47.90;;;;;;5093964;28;20445;-72
2022/03/24 09:41:27;;;;;;;49.17;44.87;;;13.40;47.30;;;;;;5093847;28;20450;-72
2022/03/24 09:43:55;;;;;;;51.00;46.40;;;13.50;47.00;;;;;;5094049;28;20488;-72
2022/03/24 09:46:23;;;;;;;49.90;45.53;;;13.60;46.10;;;;;;5093789;28;20489;-72
2022/03/24 09:48:51;;;;;;;49.23;43.93;;;13.60;46.10;;;;;;5093678;28;20453;-72
2022/03/24 09:51:18;;;;;;;49.70;45.10;;;13.80;45.70;;;;;;5093640;28;20481;-72
2022/03/24 09:53:45;;;;;;;49.63;44.90;;;14.00;45.10;;;;;;5093767;28;20553;-72
2022/03/24 09:56:12;;;;;;;48.87;44.17;;;14.00;44.50;;;;;;5093294;28;20564;-72
2022/03/24 09:58:42;;;;;;;49.97;45.37;;;14.10;42.90;;;;;;5093834;28;20453;-72
2022/03/24 10:01:09;;;;;;;46.73;42.63;;;14.20;42.30;;;;;;5093366;28;20630;-72
2022/03/24 10:03:36;;;;;;;46.77;42.67;;;14.40;40.90;;;;;;5092891;28;20477;-72
2022/03/24 10:06:07;;;;;;;44.60;41.00;;;14.50;40.70;;;;;;5093468;28;20524;-72
2022/03/24 10:08:34;;;;;;;46.97;43.07;;;14.70;39.50;;;;;;5093332;28;20510;-72
2022/03/24 10:11:03;;;;;;;44.63;40.67;;;14.70;38.90;;;;;;5093300;28;20943;-72
2022/03/24 10:13:44;;;;;;;46.73;42.03;;;14.90;38.60;;;;;;5093385;28;20472;-72
2022/03/24 10:16:13;;;;;;;44.23;40.23;;;14.90;38.00;;;;;;5093150;28;20473;-72
2022/03/24 10:18:57;;;;;;;43.80;39.70;;;15.00;37.70;;;;;;5093175;28;20469;-72
2022/03/24 10:21:29;;;;;;;45.67;41.80;;;15.10;37.50;;;;;;5093008;28;20445;-72
2022/03/24 10:23:57;;;;;;;44.07;40.60;;;15.20;37.70;;;;;;5093334;28;20834;-72
2022/03/24 10:26:39;;;;;;;45.10;41.20;;;15.20;37.50;;;;;;5093048;28;20450;-72
2022/03/24 10:29:06;;;;;;;44.60;40.80;;;15.30;37.50;;;;;;5093092;28;20897;-72
2022/03/24 10:31:34;;;;;;;46.60;42.40;;;15.40;37.30;;;;;;5092765;28;20532;-72
2022/03/24 10:34:01;;;;;;;48.40;43.50;;;15.50;37.30;;;;;;5092949;28;20978;-72
2022/03/24 10:36:30;;;;;;;45.87;42.00;;;15.80;37.10;;;;;;5093120;28;20954;-72
2022/03/24 10:39:04;;;;;;;45.27;41.57;;;15.90;36.90;;;;;;5092818;28;20955;-72
2022/03/24 10:41:32;;;;;;;50.87;46.83;;;15.80;37.10;;;;;;5092701;28;20454;-72
2022/03/24 10:44:04;;;;;;;46.73;42.37;;;15.90;36.80;;;;;;5093039;28;20473;-72
2022/03/24 10:46:33;;;;;;;46.10;42.40;;;16.00;36.70;;;;;;5092838;28;20454;-72
2022/03/24 10:49:14;;;;;;;47.47;43.37;;;16.10;36.50;;;;;;5092835;28;20540;-72
2022/03/24 10:51:45;;;;;;;46.13;41.90;;;16.30;36.40;;;;;;5092626;28;20958;-73
2022/03/24 10:54:22;;;;;;;44.20;40.30;;;16.40;36.40;;;;;;5092565;28;20532;-72
2022/03/24 10:56:56;;;;;;;45.73;41.50;;;16.40;35.70;;;;;;5092662;28;20449;-72
2022/03/24 10:59:26;;;;;;;45.27;41.23;;;16.50;35.80;;;;;;5092284;28;20950;-72
2022/03/24 11:01:54;;;;;;;45.70;42.00;;;16.60;36.00;;;;;;5092517;28;20470;-72
2022/03/24 11:04:21;;;;;;;46.93;43.07;;;16.70;35.70;;;;;;5092631;28;20544;-72
2022/03/24 11:06:50;;;;;;;48.03;44.13;;;16.80;36.00;;;;;;5092591;28;20969;-72
2022/03/24 11:09:23;;;;;;;49.07;44.67;;;17.00;35.60;;;;;;5092432;28;20473;-72
2022/03/24 11:12:17;;;;;;;49.17;44.80;;;17.00;35.50;;;;;;5092634;28;20469;-72
2022/03/24 11:14:45;;;;;;;45.47;41.57;;;17.00;35.60;;;;;;5093684;28;20475;-72
2022/03/24 11:17:12;;;;;;;47.50;43.50;;;16.90;36.20;;;;;;5096825;28;20489;-72
2022/03/24 11:19:40;;;;;;;49.43;44.97;;;16.90;36.30;;;;;;5096408;28;20974;-72
2022/03/24 11:22:13;;;;;;;47.77;43.40;;;17.00;35.90;;;;;;5096627;28;20470;-72
2022/03/24 11:24:41;;;;;;;51.17;46.70;;;17.00;35.90;;;;;;5096827;28;20803;-72
2022/03/24 11:27:09;;;;;;;46.93;43.03;;;17.10;35.90;;;;;;5096462;28;20459;-72
2022/03/24 11:29:36;;;;;;;47.10;42.97;;;17.20;35.60;;;;;;5096455;28;20540;-72
2022/03/24 11:32:04;;;;;;;45.10;41.17;;;17.30;35.40;;;;;;5096446;28;20476;-72
2022/03/24 11:34:31;;;;;;;43.40;40.17;;;17.30;33.70;;;;;;5096369;28;20437;-72
2022/03/24 11:37:00;;;;;;;43.10;39.57;;;17.40;33.00;;;;;;5096370;28;20483;-72
2022/03/24 11:39:28;;;;;;;41.03;37.87;;;17.50;32.70;;;;;;5096101;28;20456;-72
2022/03/24 11:41:58;;;;;;;42.37;39.03;;;17.50;32.90;;;;;;5096289;28;20565;-72
2022/03/24 11:44:44;;;;;;;42.23;39.03;;;17.60;31.60;;;;;;5096325;28;20453;-73
2022/03/24 11:47:14;;;;;;;43.47;39.77;;;17.70;32.00;;;;;;5096095;28;20449;-72
2022/03/24 11:49:42;;;;;;;44.23;40.63;;;17.70;31.40;;;;;;5096010;28;20449;-73
2022/03/24 11:52:23;;;;;;;42.07;38.63;;;17.80;32.20;;;;;;5096096;28;20471;-72
2022/03/24 11:54:54;;;;;;;43.63;40.10;;;17.90;32.20;;;;;;5096029;28;20472;-72
2022/03/24 11:57:42;;;;;;;44.97;41.17;;;18.00;32.10;;;;;;5096228;28;20457;-72
2022/03/24 12:00:48;;;;;;;43.37;39.33;;;18.10;33.40;;;;;;5090958;28;20825;-72
2022/03/24 12:03:44;;;;;;;42.77;39.13;;;18.10;31.00;;;;;;5095852;28;20473;-72
2022/03/24 12:06:13;;;;;;;43.93;39.83;;;18.20;30.80;;;;;;5096071;28;20452;-72
2022/03/24 12:08:50;;;;;;;41.87;38.90;;;18.30;31.50;;;;;;5096141;28;20452;-72
2022/03/24 12:11:41;;;;;;;42.47;39.20;;;18.30;31.10;;;;;;5095575;28;20540;-72
2022/03/24 12:14:11;;;;;;;43.03;38.77;;;18.40;30.80;;;;;;5095883;28;20442;-72
2022/03/24 12:16:39;;;;;;;42.73;39.53;;;18.60;30.50;;;;;;5095728;28;20474;-72
2022/03/24 12:19:08;;;;;;;42.33;39.30;;;18.60;30.40;;;;;;5095434;28;20452;-72
2022/03/24 12:21:36;;;;;;;40.83;37.83;;;18.60;30.70;;;;;;5095725;28;20453;-72
2022/03/24 12:24:10;;;;;;;41.57;38.33;;;18.50;30.40;;;;;;5096378;28;21034;-72
2022/03/24 12:26:40;;;;;;;43.33;39.50;;;18.60;30.00;;;;;;5095289;28;20935;-72
2022/03/24 12:29:18;;;;;;;43.77;39.97;;;18.60;30.40;;;;;;5095403;28;20936;-72
2022/03/24 12:32:00;;;;;;;42.43;38.97;;;18.70;30.60;;;;;;5095350;28;20545;-73
2022/03/24 12:34:31;;;;;;;41.87;38.77;;;18.80;30.60;;;;;;5095467;28;20961;-72
2022/03/24 12:36:59;;;;;;;42.90;39.50;;;19.00;30.30;;;;;;5095156;28;20850;-72
2022/03/24 12:39:38;;;;;;;44.30;40.77;;;19.10;30.30;;;;;;5095000;28;20959;-73
2022/03/24 12:42:10;;;;;;;43.07;39.80;;;19.00;30.50;;;;;;5095278;28;20473;-73